sensor_id;sensor_type;location;lat;lon;timestamp;pressure;altitude;pressure_sealevel;temperature;humidity
47240;BME280;32978;53.586;10.052;2023-04-01T00:01:00;99480.88;;;9.68;100.00
47240;BME280;32978;53.586;10.052;2023-04-01T00:05:58;99479.94;;;9.64;100.00
47240;BME280;32978;53.586;10.052;2023-04-01T00:10:55;99476.53;;;9.55;100.00
47240;BME280;32978;53.586;10.052;2023-04-01T00:15:54;99478.34;;;9.63;100.00
47240;BME280;32978;53.586;10.052;2023-04-01T00:20:51;99478.34;;;9.63;100.00
47240;BME280;32978;53.586;10.052;2023-04-01T00:25:48;99479.50;;;9.62;100.00
47240;BME280;32978;53.586;10.052;2023-04-01T00:30:46;99487.56;;;9.58;100.00
47240;BME280;32978;53.586;10.052;2023-04-01T00:35:43;99484.50;;;9.60;100.00
47240;BME280;32978;53.586;10.052;2023-04-01T00:40:44;99480.53;;;9.57;100.00
47240;BME280;32978;53.586;10.052;2023-04-01T00:45:42;99477.78;;;9.45;100.00
47240;BME280;32978;53.586;10.052;2023-04-01T00:50:40;99478.34;;;9.38;100.00
47240;BME280;32978;53.586;10.052;2023-04-01T00:55:41;99479.03;;;9.35;100.00
47240;BME280;32978;53.586;10.052;2023-04-01T01:00:40;99483.59;;;9.31;100.00
47240;BME280;32978;53.586;10.052;2023-04-01T01:06:07;99485.84;;;9.29;100.00
47240;BME280;32978;53.586;10.052;2023-04-01T01:11:07;99488.13;;;9.27;100.00
47240;BME280;32978;53.586;10.052;2023-04-01T01:16:20;99488.66;;;9.20;100.00
47240;BME280;32978;53.586;10.052;2023-04-01T01:37:22;99493.34;;;9.20;100.00
47240;BME280;32978;53.586;10.052;2023-04-01T01:42:20;99483.91;;;9.17;100.00
47240;BME280;32978;53.586;10.052;2023-04-01T01:47:23;99494.66;;;9.14;100.00
47240;BME280;32978;53.586;10.052;2023-04-01T01:52:22;99501.19;;;9.21;100.00
47240;BME280;32978;53.586;10.052;2023-04-01T01:57:23;99508.34;;;9.26;100.00
47240;BME280;32978;53.586;10.052;2023-04-01T02:02:21;99495.38;;;9.23;100.00
47240;BME280;32978;53.586;10.052;2023-04-01T02:07:25;99506.28;;;9.23;100.00
47240;BME280;32978;53.586;10.052;2023-04-01T02:12:24;99503.09;;;9.21;100.00
47240;BME280;32978;53.586;10.052;2023-04-01T02:17:26;99492.53;;;9.19;100.00
47240;BME280;32978;53.586;10.052;2023-04-01T02:22:27;99503.00;;;9.17;100.00
47240;BME280;32978;53.586;10.052;2023-04-01T02:27:25;99505.59;;;9.14;100.00
47240;BME280;32978;53.586;10.052;2023-04-01T02:32:22;99502.91;;;9.26;100.00
47240;BME280;32978;53.586;10.052;2023-04-01T02:37:18;99505.81;;;9.21;100.00
47240;BME280;32978;53.586;10.052;2023-04-01T02:42:18;99509.69;;;9.20;100.00
47240;BME280;32978;53.586;10.052;2023-04-01T02:47:14;99517.41;;;9.18;100.00
47240;BME280;32978;53.586;10.052;2023-04-01T02:52:11;99521.94;;;9.14;100.00
47240;BME280;32978;53.586;10.052;2023-04-01T02:57:07;99519.69;;;9.16;100.00
47240;BME280;32978;53.586;10.052;2023-04-01T03:02:04;99525.13;;;9.16;100.00
47240;BME280;32978;53.586;10.052;2023-04-01T03:07:01;99526.28;;;9.15;100.00
47240;BME280;32978;53.586;10.052;2023-04-01T03:11:57;99527.84;;;9.16;100.00
47240;BME280;32978;53.586;10.052;2023-04-01T03:16:54;99535.78;;;9.09;100.00
47240;BME280;32978;53.586;10.052;2023-04-01T03:21:51;99540.09;;;9.10;100.00
47240;BME280;32978;53.586;10.052;2023-04-01T03:26:47;99534.22;;;9.08;100.00
47240;BME280;32978;53.586;10.052;2023-04-01T03:31:44;99535.47;;;9.10;100.00
47240;BME280;32978;53.586;10.052;2023-04-01T03:36:41;99532.59;;;9.06;100.00
47240;BME280;32978;53.586;10.052;2023-04-01T03:41:37;99541.81;;;9.14;100.00
47240;BME280;32978;53.586;10.052;2023-04-01T03:46:34;99544.06;;;9.00;100.00
47240;BME280;32978;53.586;10.052;2023-04-01T03:51:31;99549.88;;;8.98;100.00
47240;BME280;32978;53.586;10.052;2023-04-01T03:56:27;99556.56;;;9.01;100.00
47240;BME280;32978;53.586;10.052;2023-04-01T04:01:24;99562.34;;;8.99;100.00
47240;BME280;32978;53.586;10.052;2023-04-01T04:06:20;99557.38;;;9.01;100.00
47240;BME280;32978;53.586;10.052;2023-04-01T04:11:18;99569.84;;;9.02;100.00
47240;BME280;32978;53.586;10.052;2023-04-01T04:16:16;99564.97;;;8.96;100.00
47240;BME280;32978;53.586;10.052;2023-04-01T04:21:14;99573.72;;;9.01;100.00
47240;BME280;32978;53.586;10.052;2023-04-01T04:26:13;99571.22;;;8.96;100.00
47240;BME280;32978;53.586;10.052;2023-04-01T04:31:10;99578.03;;;9.02;100.00
47240;BME280;32978;53.586;10.052;2023-04-01T04:36:07;99578.38;;;9.01;100.00
47240;BME280;32978;53.586;10.052;2023-04-01T04:41:16;99582.13;;;8.96;100.00
47240;BME280;32978;53.586;10.052;2023-04-01T04:46:14;99591.19;;;9.00;100.00
47240;BME280;32978;53.586;10.052;2023-04-01T04:51:17;99598.03;;;9.06;100.00
47240;BME280;32978;53.586;10.052;2023-04-01T04:56:21;99603.25;;;8.99;100.00
47240;BME280;32978;53.586;10.052;2023-04-01T05:01:18;99607.38;;;9.05;100.00
47240;BME280;32978;53.586;10.052;2023-04-01T05:06:16;99604.19;;;9.03;100.00
47240;BME280;32978;53.586;10.052;2023-04-01T05:11:16;99618.28;;;9.05;100.00
47240;BME280;32978;53.586;10.052;2023-04-01T05:16:15;99619.84;;;9.06;100.00
47240;BME280;32978;53.586;10.052;2023-04-01T05:21:13;99624.13;;;8.74;100.00
47240;BME280;32978;53.586;10.052;2023-04-01T05:26:13;99636.50;;;8.12;100.00
47240;BME280;32978;53.586;10.052;2023-04-01T05:31:10;99639.59;;;7.93;100.00
47240;BME280;32978;53.586;10.052;2023-04-01T05:36:08;99655.44;;;8.00;100.00
47240;BME280;32978;53.586;10.052;2023-04-01T05:41:05;99651.94;;;7.91;100.00
47240;BME280;32978;53.586;10.052;2023-04-01T05:46:02;99664.53;;;7.57;100.00
47240;BME280;32978;53.586;10.052;2023-04-01T05:50:58;99677.84;;;7.50;100.00
47240;BME280;32978;53.586;10.052;2023-04-01T05:55:55;99682.47;;;7.41;100.00
47240;BME280;32978;53.586;10.052;2023-04-01T06:00:51;99690.78;;;7.35;100.00
47240;BME280;32978;53.586;10.052;2023-04-01T06:06:13;99692.88;;;7.12;100.00
47240;BME280;32978;53.586;10.052;2023-04-01T06:11:26;99702.78;;;7.17;100.00
47240;BME280;32978;53.586;10.052;2023-04-01T06:22:09;99714.47;;;7.09;100.00
47240;BME280;32978;53.586;10.052;2023-04-01T06:32:51;99741.00;;;7.12;100.00
47240;BME280;32978;53.586;10.052;2023-04-01T06:37:57;99748.34;;;7.03;100.00
47240;BME280;32978;53.586;10.052;2023-04-01T06:53:38;99757.13;;;7.00;100.00
47240;BME280;32978;53.586;10.052;2023-04-01T06:58:45;99762.56;;;6.91;100.00
47240;BME280;32978;53.586;10.052;2023-04-01T07:04:03;99776.09;;;6.82;100.00
47240;BME280;32978;53.586;10.052;2023-04-01T07:09:06;99784.41;;;6.77;100.00
47240;BME280;32978;53.586;10.052;2023-04-01T07:14:20;99792.13;;;6.92;100.00
47240;BME280;32978;53.586;10.052;2023-04-01T07:19:20;99808.03;;;6.68;100.00
47240;BME280;32978;53.586;10.052;2023-04-01T07:24:33;99811.53;;;6.60;100.00
47240;BME280;32978;53.586;10.052;2023-04-01T07:29:30;99813.13;;;6.61;100.00
47240;BME280;32978;53.586;10.052;2023-04-01T07:40:20;99837.69;;;6.56;100.00
47240;BME280;32978;53.586;10.052;2023-04-01T07:45:31;99847.50;;;6.65;100.00
47240;BME280;32978;53.586;10.052;2023-04-01T08:01:13;99867.34;;;6.43;100.00
47240;BME280;32978;53.586;10.052;2023-04-01T08:11:53;99893.00;;;6.60;100.00
47240;BME280;32978;53.586;10.052;2023-04-01T08:17:20;99893.25;;;6.49;100.00
47240;BME280;32978;53.586;10.052;2023-04-01T08:22:42;99896.72;;;6.41;100.00
47240;BME280;32978;53.586;10.052;2023-04-01T08:27:44;99911.03;;;6.56;100.00
47240;BME280;32978;53.586;10.052;2023-04-01T08:32:42;99920.97;;;6.60;100.00
47240;BME280;32978;53.586;10.052;2023-04-01T08:37:41;99923.03;;;6.55;100.00
47240;BME280;32978;53.586;10.052;2023-04-01T08:43:00;99928.47;;;6.55;100.00
47240;BME280;32978;53.586;10.052;2023-04-01T08:48:12;99942.47;;;6.79;100.00
47240;BME280;32978;53.586;10.052;2023-04-01T09:09:11;99959.91;;;6.78;100.00
47240;BME280;32978;53.586;10.052;2023-04-01T09:25:22;99973.09;;;6.93;100.00
47240;BME280;32978;53.586;10.052;2023-04-01T09:35:32;100003.84;;;7.03;100.00
47240;BME280;32978;53.586;10.052;2023-04-01T10:07:14;100042.69;;;7.66;100.00
47240;BME280;32978;53.586;10.052;2023-04-01T10:38:32;100071.06;;;7.73;100.00
47240;BME280;32978;53.586;10.052;2023-04-01T10:43:42;100081.91;;;7.33;100.00
47240;BME280;32978;53.586;10.052;2023-04-01T10:54:34;100096.84;;;7.76;100.00
47240;BME280;32978;53.586;10.052;2023-04-01T11:17:18;100124.41;;;7.52;100.00
47240;BME280;32978;53.586;10.052;2023-04-01T11:22:07;100139.56;;;7.44;100.00
47240;BME280;32978;53.586;10.052;2023-04-01T11:38:13;100164.97;;;7.40;100.00
47240;BME280;32978;53.586;10.052;2023-04-01T11:54:05;100180.03;;;7.01;100.00
47240;BME280;32978;53.586;10.052;2023-04-01T11:59:36;100192.97;;;7.18;100.00
47240;BME280;32978;53.586;10.052;2023-04-01T12:10:21;100209.66;;;6.88;100.00
47240;BME280;32978;53.586;10.052;2023-04-01T12:26:09;100239.69;;;6.56;100.00
47240;BME280;32978;53.586;10.052;2023-04-01T12:53:06;100277.91;;;6.45;100.00
47240;BME280;32978;53.586;10.052;2023-04-01T12:58:49;100286.34;;;6.30;100.00
47240;BME280;32978;53.586;10.052;2023-04-01T13:04:23;100295.91;;;6.41;100.00
47240;BME280;32978;53.586;10.052;2023-04-01T13:09:30;100310.91;;;6.39;100.00
47240;BME280;32978;53.586;10.052;2023-04-01T13:29:36;100345.81;;;6.13;100.00
47240;BME280;32978;53.586;10.052;2023-04-01T14:00:42;100390.31;;;6.30;100.00
47240;BME280;32978;53.586;10.052;2023-04-01T14:06:05;100401.34;;;6.20;100.00
47240;BME280;32978;53.586;10.052;2023-04-01T14:11:17;100403.94;;;6.11;100.00
47240;BME280;32978;53.586;10.052;2023-04-01T14:17:03;100411.75;;;6.32;100.00
47240;BME280;32978;53.586;10.052;2023-04-01T14:22:31;100419.94;;;5.94;100.00
47240;BME280;32978;53.586;10.052;2023-04-01T14:27:43;100426.34;;;6.36;100.00
47240;BME280;32978;53.586;10.052;2023-04-01T14:33:32;100447.19;;;6.22;100.00
47240;BME280;32978;53.586;10.052;2023-04-01T14:38:34;100438.69;;;6.09;100.00
47240;BME280;32978;53.586;10.052;2023-04-01T14:43:49;100452.47;;;6.32;100.00
47240;BME280;32978;53.586;10.052;2023-04-01T14:58:57;100483.38;;;5.98;100.00
47240;BME280;32978;53.586;10.052;2023-04-01T15:14:40;100511.25;;;5.80;100.00
47240;BME280;32978;53.586;10.052;2023-04-01T15:36:20;100545.91;;;5.40;100.00
47240;BME280;32978;53.586;10.052;2023-04-01T15:46:46;100563.88;;;5.31;100.00
47240;BME280;32978;53.586;10.052;2023-04-01T15:57:38;100583.00;;;5.15;100.00
47240;BME280;32978;53.586;10.052;2023-04-01T16:02:56;100588.44;;;5.15;100.00
47240;BME280;32978;53.586;10.052;2023-04-01T16:19:18;100619.91;;;5.11;100.00
47240;BME280;32978;53.586;10.052;2023-04-01T16:29:48;100636.31;;;5.25;100.00
47240;BME280;32978;53.586;10.052;2023-04-01T16:34:58;100650.38;;;4.93;100.00
47240;BME280;32978;53.586;10.052;2023-04-01T16:50:29;100691.00;;;4.98;100.00
47240;BME280;32978;53.586;10.052;2023-04-01T16:55:55;100696.41;;;4.98;100.00
47240;BME280;32978;53.586;10.052;2023-04-01T17:01:07;100703.41;;;4.54;100.00
47240;BME280;32978;53.586;10.052;2023-04-01T17:06:22;100711.78;;;4.63;100.00
47240;BME280;32978;53.586;10.052;2023-04-01T17:11:27;100733.72;;;4.56;100.00
47240;BME280;32978;53.586;10.052;2023-04-01T17:16:56;100745.66;;;4.50;100.00
47240;BME280;32978;53.586;10.052;2023-04-01T17:22:12;100749.13;;;4.66;100.00
47240;BME280;32978;53.586;10.052;2023-04-01T17:32:18;100777.28;;;4.70;100.00
47240;BME280;32978;53.586;10.052;2023-04-01T17:37:26;100794.66;;;4.59;100.00
47240;BME280;32978;53.586;10.052;2023-04-01T17:42:40;100804.94;;;4.57;100.00
47240;BME280;32978;53.586;10.052;2023-04-01T17:52:55;100815.25;;;4.60;100.00
47240;BME280;32978;53.586;10.052;2023-04-01T18:03:24;100840.19;;;4.41;100.00
47240;BME280;32978;53.586;10.052;2023-04-01T18:08:43;100847.75;;;4.50;100.00
47240;BME280;32978;53.586;10.052;2023-04-01T18:14:03;100863.47;;;4.42;100.00
47240;BME280;32978;53.586;10.052;2023-04-01T18:19:29;100887.31;;;4.30;100.00
47240;BME280;32978;53.586;10.052;2023-04-01T18:25:01;100888.94;;;4.36;100.00
47240;BME280;32978;53.586;10.052;2023-04-01T18:30:00;100909.50;;;4.07;100.00
47240;BME280;32978;53.586;10.052;2023-04-01T18:35:19;100919.22;;;3.92;100.00
47240;BME280;32978;53.586;10.052;2023-04-01T18:40:30;100941.69;;;4.03;100.00
47240;BME280;32978;53.586;10.052;2023-04-01T18:45:33;100950.09;;;4.02;100.00
47240;BME280;32978;53.586;10.052;2023-04-01T18:50:42;100957.09;;;3.92;100.00
47240;BME280;32978;53.586;10.052;2023-04-01T18:55:48;100977.16;;;4.02;100.00
47240;BME280;32978;53.586;10.052;2023-04-01T19:06:13;100992.28;;;3.97;100.00
47240;BME280;32978;53.586;10.052;2023-04-01T19:11:43;101000.34;;;3.87;100.00
47240;BME280;32978;53.586;10.052;2023-04-01T19:27:37;101029.03;;;3.83;100.00
47240;BME280;32978;53.586;10.052;2023-04-01T19:38:02;101047.19;;;3.88;100.00
47240;BME280;32978;53.586;10.052;2023-04-01T19:48:21;101059.78;;;3.67;100.00
47240;BME280;32978;53.586;10.052;2023-04-01T19:53:39;101074.22;;;3.40;100.00
47240;BME280;32978;53.586;10.052;2023-04-01T19:58:53;101084.41;;;3.23;100.00
47240;BME280;32978;53.586;10.052;2023-04-01T20:03:55;101091.84;;;3.10;100.00
47240;BME280;32978;53.586;10.052;2023-04-01T20:08:57;101103.75;;;2.77;100.00
47240;BME280;32978;53.586;10.052;2023-04-01T20:19:01;101131.81;;;2.76;100.00
47240;BME280;32978;53.586;10.052;2023-04-01T20:24:02;101147.97;;;2.44;100.00
47240;BME280;32978;53.586;10.052;2023-04-01T20:40:19;101193.84;;;2.44;100.00
47240;BME280;32978;53.586;10.052;2023-04-01T20:45:32;101194.09;;;2.42;100.00
47240;BME280;32978;53.586;10.052;2023-04-01T20:50:56;101204.31;;;2.18;100.00
47240;BME280;32978;53.586;10.052;2023-04-01T20:56:15;101216.97;;;2.18;100.00
47240;BME280;32978;53.586;10.052;2023-04-01T21:07:20;101235.91;;;2.01;100.00
47240;BME280;32978;53.586;10.052;2023-04-01T21:17:50;101251.75;;;1.80;100.00
47240;BME280;32978;53.586;10.052;2023-04-01T21:23:06;101257.91;;;1.76;100.00
47240;BME280;32978;53.586;10.052;2023-04-01T21:28:23;101261.56;;;1.53;100.00
47240;BME280;32978;53.586;10.052;2023-04-01T21:38:58;101287.28;;;1.43;100.00
47240;BME280;32978;53.586;10.052;2023-04-01T22:04:53;101318.78;;;1.26;100.00
47240;BME280;32978;53.586;10.052;2023-04-01T22:21:43;101351.00;;;1.21;100.00
47240;BME280;32978;53.586;10.052;2023-04-01T22:32:12;101363.97;;;0.95;100.00
47240;BME280;32978;53.586;10.052;2023-04-01T22:37:45;101377.75;;;0.99;100.00
47240;BME280;32978;53.586;10.052;2023-04-01T22:42:46;101383.38;;;0.97;100.00
47240;BME280;32978;53.586;10.052;2023-04-01T22:53:13;101404.34;;;0.95;100.00
47240;BME280;32978;53.586;10.052;2023-04-01T22:58:23;101415.56;;;0.92;100.00
47240;BME280;32978;53.586;10.052;2023-04-01T23:03:36;101422.84;;;0.80;100.00
47240;BME280;32978;53.586;10.052;2023-04-01T23:19:52;101458.34;;;0.77;100.00
47240;BME280;32978;53.586;10.052;2023-04-01T23:24:56;101461.94;;;0.71;100.00
47240;BME280;32978;53.586;10.052;2023-04-01T23:29:55;101462.75;;;0.71;100.00
47240;BME280;32978;53.586;10.052;2023-04-01T23:34:57;101468.25;;;0.76;100.00
47240;BME280;32978;53.586;10.052;2023-04-01T23:39:57;101470.03;;;0.71;100.00
47240;BME280;32978;53.586;10.052;2023-04-01T23:45:00;101492.38;;;0.71;100.00
47240;BME280;32978;53.586;10.052;2023-04-01T23:50:01;101499.25;;;0.55;100.00
